Time;durP1;ratioP1;P1;durP2;ratioP2;P2;SDS_P1;SDS_P2;PMS_P1;PMS_P2;Temp;Humidity;BMP_temperature;BMP_pressure;BME280_temperature;BME280_humidity;BME280_pressure;Samples;Min_cycle;Max_cycle;Signal;HPM_P1;HPM_P2
2021/09/06 00:01:42;;;;;;;9.75;7.15;;;;;;;21.23;57.99;102182.94;5053631;28;20371;-70
2021/09/06 00:04:07;;;;;;;10.63;7.20;;;;;;;21.23;58.04;102180.28;5053676;28;20040;-70
2021/09/06 00:06:37;;;;;;;9.93;7.13;;;;;;;21.22;57.88;102187.41;5052958;28;20769;-69
2021/09/06 00:09:02;;;;;;;9.38;7.25;;;;;;;21.22;57.89;102189.19;5053933;28;20021;-69
2021/09/06 00:11:28;;;;;;;9.95;7.60;;;;;;;21.20;57.88;102190.16;5054114;28;20166;-70
2021/09/06 00:13:53;;;;;;;9.50;7.43;;;;;;;21.21;57.95;102198.97;5053050;28;20430;-70
2021/09/06 00:16:18;;;;;;;10.52;7.55;;;;;;;21.20;57.91;102198.13;5053924;28;20070;-69
2021/09/06 00:18:46;;;;;;;9.85;7.55;;;;;;;21.20;57.84;102200.78;5053637;28;20361;-69
2021/09/06 00:21:11;;;;;;;9.23;7.05;;;;;;;21.20;57.77;102199.91;5052371;28;20102;-71
2021/09/06 00:23:37;;;;;;;11.80;7.05;;;;;;;21.18;57.67;102197.38;5053817;28;20060;-70
2021/09/06 00:26:03;;;;;;;10.50;7.68;;;;;;;21.19;57.89;102198.22;5053452;28;20365;-70
2021/09/06 00:28:30;;;;;;;9.77;7.57;;;;;;;21.18;57.85;102201.84;5052703;28;20024;-71
2021/09/06 00:30:56;;;;;;;10.30;7.35;;;;;;;21.16;57.54;102199.28;5052466;28;20021;-70
2021/09/06 00:33:30;;;;;;;10.07;7.68;;;;;;;21.18;57.63;102207.13;5053312;28;20029;-70
2021/09/06 00:35:57;;;;;;;9.15;6.97;;;;;;;21.17;57.58;102202.78;5052594;28;20048;-69
2021/09/06 00:38:23;;;;;;;9.90;7.13;;;;;;;21.16;57.51;102199.28;5053573;28;20135;-69
2021/09/06 00:40:50;;;;;;;9.63;6.78;;;;;;;21.17;57.72;102208.06;5053044;28;20029;-70
2021/09/06 00:43:17;;;;;;;10.65;7.00;;;;;;;21.15;57.53;102200.25;5052458;28;20029;-70
2021/09/06 00:45:45;;;;;;;9.55;6.95;;;;;;;21.15;57.47;102207.34;5053315;28;20064;-69
2021/09/06 00:48:10;;;;;;;10.63;7.10;;;;;;;21.13;57.63;102198.69;5052579;28;20033;-69
2021/09/06 00:50:36;;;;;;;11.60;7.20;;;;;;;21.14;57.68;102201.22;5052582;28;20029;-70
2021/09/06 00:53:04;;;;;;;10.30;7.40;;;;;;;21.14;57.50;102201.22;5052996;28;20040;-69
2021/09/06 00:55:30;;;;;;;9.38;6.75;;;;;;;21.13;57.42;102201.31;5053120;28;20028;-71
2021/09/06 00:57:56;;;;;;;8.93;6.85;;;;;;;21.13;57.35;102198.69;5052165;28;20013;-69
2021/09/06 01:00:21;;;;;;;8.98;6.78;;;;;;;21.08;57.22;102192.84;5052889;28;20175;-69
2021/09/06 01:02:47;;;;;;;8.35;6.45;;;;;;;21.10;57.42;102202.38;5052099;28;20044;-70
2021/09/06 01:05:14;;;;;;;9.98;6.95;;;;;;;21.12;57.25;102204.94;5052918;28;20021;-70
2021/09/06 01:07:39;;;;;;;9.02;6.68;;;;;;;21.10;57.04;102199.72;5052782;28;20387;-69
2021/09/06 01:10:08;;;;;;;10.10;6.82;;;;;;;21.09;57.08;102198.03;5051723;28;20065;-70
2021/09/06 01:12:34;;;;;;;9.20;6.90;;;;;;;21.09;57.25;102192.72;5052662;28;20057;-70
2021/09/06 01:15:00;;;;;;;8.57;6.07;;;;;;;21.09;57.30;102189.25;5052283;28;20131;-69
2021/09/06 01:17:25;;;;;;;8.82;6.65;;;;;;;21.08;57.03;102190.19;5051917;28;20499;-69
2021/09/06 01:19:51;;;;;;;9.17;6.20;;;;;;;21.10;56.96;102196.25;5052430;28;20021;-69
2021/09/06 01:22:18;;;;;;;8.75;6.60;;;;;;;21.09;57.14;102190.06;5052495;28;20762;-70
2021/09/06 01:24:46;;;;;;;9.32;6.70;;;;;;;21.09;56.97;102192.72;5051877;28;20029;-70
2021/09/06 01:27:17;;;;;;;8.98;6.88;;;;;;;21.08;56.99;102187.53;5052132;28;20025;-70
2021/09/06 01:29:43;;;;;;;9.00;6.85;;;;;;;21.07;56.69;102189.34;5052359;28;20096;-69
2021/09/06 01:32:09;;;;;;;9.30;6.85;;;;;;;21.07;57.10;102188.50;5051504;28;20045;-70
2021/09/06 01:34:35;;;;;;;9.27;6.57;;;;;;;21.06;56.89;102192.13;5052453;28;20027;-70
2021/09/06 01:37:01;;;;;;;9.30;6.57;;;;;;;21.06;56.86;102182.38;5052018;28;20100;-70
2021/09/06 01:39:26;;;;;;;9.50;7.05;;;;;;;21.04;56.81;102188.75;5051807;28;20033;-70
2021/09/06 01:41:52;;;;;;;9.88;6.85;;;;;;;21.06;56.82;102182.38;5051857;28;20074;-69
2021/09/06 01:44:17;;;;;;;9.88;7.28;;;;;;;21.05;56.60;102187.78;5052203;28;20026;-70
2021/09/06 01:46:42;;;;;;;8.75;6.65;;;;;;;21.04;56.87;102181.63;5051176;28;20119;-69
2021/09/06 01:49:08;;;;;;;9.55;6.57;;;;;;;21.05;56.75;102187.78;5051745;28;20075;-69
2021/09/06 01:51:33;;;;;;;8.88;6.60;;;;;;;21.05;56.84;102185.16;5052262;28;20041;-70
2021/09/06 01:53:58;;;;;;;8.90;6.18;;;;;;;21.04;56.44;102191.38;5051214;28;20017;-70
2021/09/06 01:56:24;;;;;;;8.98;6.65;;;;;;;21.02;56.76;102191.50;5052071;28;20025;-70
2021/09/06 01:58:49;;;;;;;8.82;6.60;;;;;;;21.03;56.51;102193.19;5051747;28;20357;-70
2021/09/06 02:01:18;;;;;;;8.80;6.68;;;;;;;21.01;56.67;102188.00;5051716;28;20464;-70
2021/09/06 02:03:43;;;;;;;9.23;6.70;;;;;;;21.01;56.74;102198.63;5052237;28;20403;-70
2021/09/06 02:06:09;;;;;;;9.07;6.53;;;;;;;21.02;56.65;102191.50;5051021;28;20029;-70
2021/09/06 02:08:35;;;;;;;7.57;5.88;;;;;;;21.01;56.52;102193.31;5052023;28;20025;-69
2021/09/06 02:11:00;;;;;;;10.75;6.55;;;;;;;21.01;56.60;102198.63;5051720;28;20028;-69
2021/09/06 02:13:26;;;;;;;8.95;6.53;;;;;;;20.99;56.61;102199.66;5051172;28;20017;-70
2021/09/06 02:15:51;;;;;;;11.38;7.10;;;;;;;20.98;56.54;102193.53;5051782;28;20395;-70
2021/09/06 02:18:17;;;;;;;9.32;6.70;;;;;;;21.01;56.50;102205.69;5052141;28;20051;-69
2021/09/06 02:20:43;;;;;;;10.13;6.47;;;;;;;21.01;56.38;102203.03;5051221;28;20029;-69
2021/09/06 02:23:08;;;;;;;9.57;7.15;;;;;;;20.99;56.36;102197.84;5051632;28;20032;-70
2021/09/06 02:25:33;;;;;;;8.55;6.25;;;;;;;20.99;56.58;102194.38;5051834;28;20028;-70
2021/09/06 02:27:59;;;;;;;8.50;6.10;;;;;;;20.96;56.54;102195.44;5050648;28;20036;-70
2021/09/06 02:30:24;;;;;;;8.40;6.20;;;;;;;20.97;56.57;102198.94;5052044;28;20668;-69
2021/09/06 02:32:53;;;;;;;9.10;6.40;;;;;;;20.99;56.38;102199.66;5051774;28;20274;-69
2021/09/06 02:35:18;;;;;;;9.23;6.53;;;;;;;20.98;56.10;102190.88;5051163;28;20100;-69
2021/09/06 02:37:44;;;;;;;8.73;6.25;;;;;;;20.97;56.28;102191.00;5051817;28;20104;-69
2021/09/06 02:40:12;;;;;;;8.07;6.38;;;;;;;20.97;56.43;102193.66;5051419;28;20025;-69
2021/09/06 02:42:37;;;;;;;9.23;6.72;;;;;;;20.96;56.42;102191.94;5050887;28;20025;-69
2021/09/06 02:45:03;;;;;;;10.27;6.18;;;;;;;20.95;56.24;102192.88;5051600;28;20375;-70
2021/09/06 02:47:29;;;;;;;9.35;6.65;;;;;;;20.94;56.20;102193.88;5051465;28;20210;-69
2021/09/06 02:49:57;;;;;;;8.20;6.28;;;;;;;20.94;56.27;102192.03;5050833;28;20542;-70
2021/09/06 02:52:23;;;;;;;9.73;6.38;;;;;;;20.91;56.13;102186.97;5051761;28;20108;-69
2021/09/06 02:54:48;;;;;;;9.00;6.28;;;;;;;20.94;55.76;102209.75;5053390;28;20459;-69
2021/09/06 02:57:13;;;;;;;9.00;6.37;;;;;;;20.92;56.00;102198.41;5054406;28;20032;-70
2021/09/06 02:59:38;;;;;;;8.70;6.32;;;;;;;20.93;55.97;102194.81;5055599;28;20025;-69
2021/09/06 03:02:04;;;;;;;8.48;6.13;;;;;;;20.92;56.07;102196.63;5054947;28;20025;-70
2021/09/06 03:04:30;;;;;;;9.52;6.72;;;;;;;20.92;55.73;102191.31;5054273;28;20021;-69
2021/09/06 03:06:55;;;;;;;8.85;6.30;;;;;;;20.92;56.06;102193.97;5054685;28;20033;-69
2021/09/06 03:09:21;;;;;;;10.57;7.07;;;;;;;20.91;55.89;102197.56;5054199;28;20025;-70
2021/09/06 03:11:49;;;;;;;8.47;6.53;;;;;;;20.89;55.90;102191.53;5054824;28;20024;-71
2021/09/06 03:14:14;;;;;;;8.80;6.68;;;;;;;20.87;56.04;102185.50;5054789;28;20736;-70
2021/09/06 03:16:40;;;;;;;8.88;6.38;;;;;;;20.89;55.93;102194.19;5054285;28;20032;-70
2021/09/06 03:19:05;;;;;;;9.05;6.60;;;;;;;20.89;55.73;102193.34;5054611;28;20033;-69
2021/09/06 03:21:30;;;;;;;8.80;6.25;;;;;;;20.90;55.89;102197.69;5054847;28;20070;-69
2021/09/06 03:23:55;;;;;;;8.90;6.13;;;;;;;20.87;55.84;102190.81;5053799;28;20029;-69
2021/09/06 03:26:30;;;;;;;10.13;6.67;;;;;;;20.89;55.87;102194.19;5054589;28;20032;-69
2021/09/06 03:28:55;;;;;;;9.15;6.50;;;;;;;20.88;55.69;102186.34;5054437;28;20323;-69
2021/09/06 03:31:20;;;;;;;8.57;6.13;;;;;;;20.88;55.95;102194.31;5053791;28;20104;-70
2021/09/06 03:33:46;;;;;;;9.20;6.40;;;;;;;20.87;55.63;102197.91;5054491;28;20025;-69
2021/09/06 03:36:11;;;;;;;8.60;6.68;;;;;;;20.86;55.74;102186.47;5054149;28;20295;-69
2021/09/06 03:38:36;;;;;;;8.60;6.28;;;;;;;20.86;55.50;102182.97;5053897;28;20040;-70
2021/09/06 03:41:02;;;;;;;10.52;6.47;;;;;;;20.84;55.75;102181.28;5053949;28;20017;-70
2021/09/06 03:43:27;;;;;;;9.02;6.20;;;;;;;20.83;55.74;102184.03;5054498;28;20024;-70
2021/09/06 03:45:55;;;;;;;8.60;6.78;;;;;;;20.86;55.69;102196.22;5053010;28;20056;-70
2021/09/06 03:48:21;;;;;;;9.23;6.50;;;;;;;20.85;55.59;102192.72;5054281;28;20028;-70
2021/09/06 03:50:46;;;;;;;8.60;6.40;;;;;;;20.83;55.50;102184.03;5054316;28;20083;-70
2021/09/06 03:53:12;;;;;;;9.88;6.88;;;;;;;20.83;55.51;102190.16;5053039;28;20025;-69
2021/09/06 03:55:38;;;;;;;8.00;6.07;;;;;;;20.84;55.56;102191.88;5054030;28;20071;-70
2021/09/06 03:58:03;;;;;;;8.70;6.50;;;;;;;20.83;55.50;102195.47;5053921;28;20021;-69
2021/09/06 04:00:28;;;;;;;9.03;6.70;;;;;;;20.84;55.54;102186.56;5053316;28;20051;-70
2021/09/06 04:02:54;;;;;;;8.50;5.80;;;;;;;20.83;55.40;102199.94;5053824;28;20266;-69
2021/09/06 04:05:19;;;;;;;8.87;6.53;;;;;;;20.82;55.40;102199.09;5053953;28;20040;-70
2021/09/06 04:07:44;;;;;;;9.45;6.63;;;;;;;20.82;55.52;102201.75;5053013;28;20300;-70
2021/09/06 04:10:10;;;;;;;8.77;6.15;;;;;;;20.81;55.59;102197.38;5053361;28;20084;-70
2021/09/06 04:12:36;;;;;;;8.23;6.25;;;;;;;20.82;55.39;102196.44;5053204;28;20017;-69
2021/09/06 04:15:03;;;;;;;8.63;6.35;;;;;;;20.82;55.49;102200.88;5053501;28;20099;-69
2021/09/06 04:17:28;;;;;;;8.07;6.18;;;;;;;20.81;55.42;102201.84;5053803;28;20025;-69
2021/09/06 04:19:56;;;;;;;8.52;6.45;;;;;;;20.81;55.32;102200.03;5052574;28;20032;-69
2021/09/06 04:22:22;;;;;;;9.73;7.57;;;;;;;20.80;55.34;102187.72;5053531;28;20028;-69
2021/09/06 04:24:47;;;;;;;8.95;6.18;;;;;;;20.81;55.38;102193.91;5053207;28;20018;-70
2021/09/06 04:27:12;;;;;;;9.27;6.85;;;;;;;20.78;55.53;102191.47;5052759;28;20052;-70
2021/09/06 04:29:38;;;;;;;9.10;6.38;;;;;;;20.80;55.33;102192.19;5053361;28;20032;-69
2021/09/06 04:32:03;;;;;;;7.97;5.97;;;;;;;20.77;55.31;102192.41;5053181;28;20030;-70
2021/09/06 04:34:28;;;;;;;8.20;6.28;;;;;;;20.78;55.13;102194.97;5052659;28;20033;-70
2021/09/06 04:36:56;;;;;;;8.97;6.67;;;;;;;20.78;55.49;102200.25;5053034;28;20112;-70
2021/09/06 04:39:22;;;;;;;8.35;6.20;;;;;;;20.78;55.26;102204.72;5053233;28;20311;-69
2021/09/06 04:41:47;;;;;;;7.90;6.10;;;;;;;20.73;55.37;102201.53;5052662;28;20404;-69
2021/09/06 04:44:12;;;;;;;8.65;6.20;;;;;;;20.77;55.26;102216.25;5053424;28;20274;-70
2021/09/06 04:46:37;;;;;;;7.77;6.23;;;;;;;20.78;54.89;102220.63;5052774;28;20048;-69
2021/09/06 04:49:04;;;;;;;8.33;6.23;;;;;;;20.76;55.40;102211.91;5052053;28;20266;-70
2021/09/06 04:51:29;;;;;;;8.45;6.47;;;;;;;20.76;55.13;102226.03;5053128;28;20327;-69
2021/09/06 04:53:55;;;;;;;9.32;6.93;;;;;;;20.77;55.43;102233.00;5052584;28;20025;-69
2021/09/06 04:56:23;;;;;;;9.52;6.80;;;;;;;20.76;55.24;102233.09;5052203;28;20028;-69
2021/09/06 04:58:49;;;;;;;8.93;6.25;;;;;;;20.76;55.23;102238.41;5052778;28;20047;-70
2021/09/06 05:01:14;;;;;;;9.07;6.38;;;;;;;20.75;55.14;102229.59;5052819;28;20028;-70
2021/09/06 05:03:39;;;;;;;11.20;7.07;;;;;;;20.74;54.98;102230.56;5052333;28;20128;-70
2021/09/06 05:06:04;;;;;;;8.37;6.10;;;;;;;20.75;55.03;102236.72;5052549;28;20780;-70
2021/09/06 05:08:30;;;;;;;8.90;6.87;;;;;;;20.74;55.14;102235.84;5052632;28;20270;-70
2021/09/06 05:11:01;;;;;;;8.38;6.43;;;;;;;20.72;54.99;102234.28;5051957;28;20281;-69
2021/09/06 05:13:28;;;;;;;9.23;6.55;;;;;;;20.71;55.04;102236.09;5052970;28;20053;-70
2021/09/06 05:16:02;;;;;;;8.50;6.47;;;;;;;20.73;55.10;102239.47;5051729;28;20440;-70
2021/09/06 05:18:40;;;;;;;9.27;6.45;;;;;;;20.73;55.02;102241.25;5052306;28;20392;-70
2021/09/06 05:21:08;;;;;;;9.07;6.78;;;;;;;20.72;55.10;102242.25;5052280;28;20036;-69
2021/09/06 05:23:33;;;;;;;9.38;6.38;;;;;;;20.72;54.85;102242.25;5052414;28;20021;-69
2021/09/06 05:25:59;;;;;;;8.17;6.27;;;;;;;20.72;55.06;102252.84;5052712;28;20083;-70
2021/09/06 05:28:24;;;;;;;8.52;6.10;;;;;;;20.69;54.87;102245.94;5052855;28;20354;-70
2021/09/06 05:30:49;;;;;;;9.55;7.00;;;;;;;20.70;54.76;102255.59;5051572;28;20074;-70
2021/09/06 05:33:15;;;;;;;7.82;5.90;;;;;;;20.72;54.93;102250.19;5052482;28;20107;-70
2021/09/06 05:35:40;;;;;;;8.90;6.45;;;;;;;20.71;54.59;102246.69;5052329;28;20027;-69
2021/09/06 05:38:05;;;;;;;8.88;6.28;;;;;;;20.68;54.93;102246.03;5051507;28;20487;-70
2021/09/06 05:40:34;;;;;;;8.15;6.30;;;;;;;20.70;54.81;102250.28;5052476;28;20033;-69
2021/09/06 05:42:59;;;;;;;8.27;6.43;;;;;;;20.69;54.68;102258.34;5051888;28;20121;-70
2021/09/06 05:45:25;;;;;;;8.27;6.22;;;;;;;20.68;54.75;102269.88;5051602;28;20056;-70
2021/09/06 05:47:50;;;;;;;9.38;6.60;;;;;;;20.71;54.82;102265.25;5051593;28;20125;-70
2021/09/06 05:50:18;;;;;;;8.70;6.60;;;;;;;20.71;54.70;102275.84;5052196;28;20055;-70
2021/09/06 05:52:44;;;;;;;9.30;6.60;;;;;;;20.71;54.66;102274.97;5051958;28;20364;-70
2021/09/06 05:55:23;;;;;;;10.30;6.82;;;;;;;20.68;54.89;102276.03;5051921;28;20086;-69
2021/09/06 05:57:49;;;;;;;8.82;6.13;;;;;;;20.69;54.75;102280.38;5051743;28;20029;-71
2021/09/06 06:00:14;;;;;;;10.50;6.80;;;;;;;20.70;54.60;102278.59;5051096;28;20028;-69
2021/09/06 06:02:40;;;;;;;8.07;6.05;;;;;;;20.68;54.76;102283.13;5051400;28;20282;-69
2021/09/06 06:05:06;;;;;;;9.93;6.22;;;;;;;20.67;55.05;102284.09;5050908;28;20033;-72
2021/09/06 06:07:32;;;;;;;9.15;6.50;;;;;;;20.64;55.22;102277.19;5051843;28;20032;-74
2021/09/06 06:09:57;;;;;;;9.63;6.82;;;;;;;20.67;55.21;102286.75;5051845;28;20025;-68
2021/09/06 06:12:22;;;;;;;8.55;5.88;;;;;;;20.68;55.42;102289.28;5050965;28;20060;-68
2021/09/06 06:14:49;;;;;;;8.68;6.78;;;;;;;20.70;55.56;102292.69;5051639;28;20076;-64
2021/09/06 06:17:14;;;;;;;8.57;6.00;;;;;;;20.69;55.75;102290.97;5051635;28;20025;-69
2021/09/06 06:19:40;;;;;;;10.68;6.03;;;;;;;20.73;55.79;102297.75;5051459;28;20492;-69
2021/09/06 06:22:06;;;;;;;13.63;6.53;;;;;;;20.75;55.69;102297.66;5051699;28;20127;-67
2021/09/06 06:24:32;;;;;;;8.70;6.10;;;;;;;20.75;55.67;102293.19;5051581;28;20028;-68
2021/09/06 06:27:00;;;;;;;10.48;6.22;;;;;;;20.76;55.83;102294.03;5050674;28;20025;-68
2021/09/06 06:29:25;;;;;;;8.70;6.55;;;;;;;20.77;55.81;102299.22;5053576;28;20021;-69
2021/09/06 06:31:50;;;;;;;9.23;6.60;;;;;;;20.77;56.16;102299.22;5055259;28;20032;-67
2021/09/06 06:34:15;;;;;;;10.27;7.18;;;;;;;20.78;56.04;102294.78;5055172;28;20262;-67
2021/09/06 06:36:41;;;;;;;7.97;5.87;;;;;;;20.81;55.93;102299.88;5055787;28;20047;-66
2021/09/06 06:39:06;;;;;;;10.32;7.05;;;;;;;20.82;56.05;102302.41;5055239;28;20684;-69
2021/09/06 06:41:32;;;;;;;8.48;6.22;;;;;;;20.84;56.26;102305.81;5054809;28;20021;-68
2021/09/06 06:44:01;;;;;;;8.75;6.70;;;;;;;20.86;56.13;102304.88;5055081;28;20041;-67
2021/09/06 06:46:26;;;;;;;8.27;6.35;;;;;;;20.89;56.21;102307.28;5055267;28;20037;-68
2021/09/06 06:48:51;;;;;;;9.68;6.90;;;;;;;20.90;56.35;102303.66;5054542;28;20075;-67
2021/09/06 06:51:17;;;;;;;9.70;6.53;;;;;;;20.93;56.74;102311.41;5055480;28;20021;-68
2021/09/06 06:53:42;;;;;;;8.27;6.28;;;;;;;20.95;56.80;102307.72;5055452;28;20071;-66
2021/09/06 06:56:08;;;;;;;10.23;6.27;;;;;;;20.97;56.88;102313.75;5054270;28;20056;-67
2021/09/06 06:58:33;;;;;;;9.45;6.63;;;;;;;20.99;56.78;102309.16;5055979;28;20270;-65
2021/09/06 07:00:58;;;;;;;9.90;6.65;;;;;;;21.04;57.08;102311.50;5055462;28;20390;-66
2021/09/06 07:03:24;;;;;;;10.68;6.90;;;;;;;21.06;56.82;102319.34;5054612;28;20037;-68
2021/09/06 07:05:49;;;;;;;10.00;6.80;;;;;;;21.09;56.92;102321.78;5055500;28;20039;-69
2021/09/06 07:08:14;;;;;;;9.32;6.43;;;;;;;21.09;56.82;102319.97;5055283;28;20430;-67
2021/09/06 07:10:39;;;;;;;9.23;6.85;;;;;;;21.10;56.70;102321.66;5054402;28;20025;-67
2021/09/06 07:13:05;;;;;;;10.55;6.95;;;;;;;21.11;56.56;102325.16;5055157;28;20025;-64
2021/09/06 07:15:33;;;;;;;11.27;6.63;;;;;;;21.11;56.92;102327.81;5054240;28;20043;-68
2021/09/06 07:17:59;;;;;;;8.50;6.00;;;;;;;21.09;56.91;102322.63;5055237;28;20286;-68
2021/09/06 07:20:26;;;;;;;9.63;6.47;;;;;;;21.11;56.85;102325.16;5056083;28;20029;-68
2021/09/06 07:22:54;;;;;;;9.70;6.75;;;;;;;21.11;57.00;102336.63;5054424;28;20072;-67
2021/09/06 07:25:19;;;;;;;9.70;6.70;;;;;;;21.12;56.82;102335.66;5055018;28;20025;-68
2021/09/06 07:27:45;;;;;;;9.90;6.90;;;;;;;21.13;56.86;102334.72;5055385;28;20029;-68
2021/09/06 07:30:11;;;;;;;12.65;7.00;;;;;;;21.13;56.99;102333.88;5053741;28;20103;-66
2021/09/06 07:32:36;;;;;;;10.73;7.15;;;;;;;21.15;56.82;102334.59;5055015;28;20106;-67
2021/09/06 07:35:05;;;;;;;10.25;7.28;;;;;;;21.16;56.79;102342.44;5054044;28;20055;-66
2021/09/06 07:37:31;;;;;;;10.27;7.18;;;;;;;21.16;56.77;102342.44;5053841;28;20021;-67
2021/09/06 07:39:56;;;;;;;10.02;7.22;;;;;;;21.17;56.76;102346.81;5054140;28;20461;-65
2021/09/06 07:42:22;;;;;;;10.18;7.20;;;;;;;21.17;56.79;102357.41;5054663;28;20104;-66
2021/09/06 07:44:47;;;;;;;12.38;6.93;;;;;;;21.17;56.77;102349.44;5053545;28;20025;-68
2021/09/06 07:47:15;;;;;;;10.23;6.88;;;;;;;21.17;56.57;102354.75;5054259;28;20576;-62
2021/09/06 07:49:41;;;;;;;9.75;6.85;;;;;;;21.18;56.65;102345.00;5054971;28;20111;-68
2021/09/06 07:52:07;;;;;;;9.90;7.05;;;;;;;21.20;56.62;102346.59;5053799;28;20037;-68
2021/09/06 07:54:32;;;;;;;9.95;6.72;;;;;;;21.22;56.89;102356.22;5054761;28;20036;-68
2021/09/06 07:56:58;;;;;;;9.93;6.35;;;;;;;21.21;56.76;102350.06;5054547;28;20025;-67
2021/09/06 07:59:23;;;;;;;11.68;7.07;;;;;;;21.23;57.00;102349.97;5053507;28;20413;-73
2021/09/06 08:01:48;;;;;;;9.77;6.78;;;;;;;21.22;56.78;102357.09;5053810;28;20108;-69
2021/09/06 08:04:17;;;;;;;11.40;6.45;;;;;;;21.24;57.08;102364.91;5054269;28;20024;-68
2021/09/06 08:06:45;;;;;;;9.23;6.45;;;;;;;21.24;56.84;102364.91;5053585;28;20396;-69
2021/09/06 08:09:14;;;;;;;10.80;6.22;;;;;;;21.25;57.19;102367.44;5053800;28;20025;-67
2021/09/06 08:11:48;;;;;;;9.50;6.30;;;;;;;21.25;56.89;102366.59;5053082;28;20033;-67
2021/09/06 08:14:16;;;;;;;9.55;6.43;;;;;;;21.23;57.31;102366.72;5053920;28;20017;-65
2021/09/06 08:16:41;;;;;;;9.55;6.88;;;;;;;21.26;57.13;102376.25;5053789;28;20490;-64
2021/09/06 08:19:07;;;;;;;10.73;6.53;;;;;;;21.29;57.11;102373.41;5052893;28;20021;-66
2021/09/06 08:21:32;;;;;;;9.97;6.93;;;;;;;21.31;57.21;102377.63;5053910;28;20165;-66
2021/09/06 08:23:58;;;;;;;10.48;6.32;;;;;;;21.32;57.55;102375.84;5053308;28;20760;-65
2021/09/06 08:26:27;;;;;;;10.23;6.93;;;;;;;21.27;57.06;102369.97;5052949;28;20375;-66
2021/09/06 08:28:52;;;;;;;11.43;6.90;;;;;;;21.31;57.35;102380.25;5053651;28;20033;-66
2021/09/06 08:31:17;;;;;;;10.80;6.85;;;;;;;21.32;57.22;102381.97;5053730;28;20051;-68
2021/09/06 08:33:43;;;;;;;9.98;6.75;;;;;;;21.32;57.35;102381.97;5052987;28;20495;-67
2021/09/06 08:36:09;;;;;;;8.70;6.65;;;;;;;21.33;57.25;102378.38;5053173;28;20048;-67
2021/09/06 08:38:35;;;;;;;10.13;6.32;;;;;;;21.33;57.21;102383.69;5053615;28;20040;-65
2021/09/06 08:41:01;;;;;;;9.10;5.95;;;;;;;21.31;57.25;102377.63;5052483;28;20022;-67
2021/09/06 08:43:32;;;;;;;12.63;6.93;;;;;;;21.31;57.35;102377.63;5053364;28;20100;-68
2021/09/06 08:45:57;;;;;;;10.82;6.40;;;;;;;21.33;57.17;102382.81;5053234;28;20045;-68
2021/09/06 08:48:22;;;;;;;10.48;6.45;;;;;;;21.30;57.21;102377.72;5052827;28;20436;-66
2021/09/06 08:50:48;;;;;;;10.88;6.55;;;;;;;21.33;57.21;102386.34;5053101;28;20028;-67
2021/09/06 08:53:16;;;;;;;8.63;6.13;;;;;;;21.32;57.31;102384.63;5052433;28;20083;-66
2021/09/06 08:55:41;;;;;;;9.30;6.50;;;;;;;21.35;57.50;102388.88;5052557;28;20037;-68
2021/09/06 08:58:07;;;;;;;9.50;6.28;;;;;;;21.36;57.44;102393.19;5052932;28;20035;-68
2021/09/06 09:00:35;;;;;;;7.53;5.90;;;;;;;21.36;57.32;102391.41;5053558;28;20021;-69
2021/09/06 09:03:09;;;;;;;9.38;6.35;;;;;;;21.38;57.55;102393.97;5052257;28;20025;-67
2021/09/06 09:05:36;;;;;;;8.98;6.38;;;;;;;21.36;57.45;102385.25;5053214;28;20476;-68
2021/09/06 09:08:02;;;;;;;10.38;6.78;;;;;;;21.38;57.53;102400.09;5051714;28;20033;-65
2021/09/06 09:10:37;;;;;;;10.48;6.80;;;;;;;21.42;57.39;102400.72;5053256;28;20090;-66
2021/09/06 09:13:04;;;;;;;11.52;8.10;;;;;;;21.42;57.54;102395.44;5053210;28;20024;-66
2021/09/06 09:15:30;;;;;;;10.18;7.50;;;;;;;21.41;57.25;102388.41;5054150;28;20040;-66
2021/09/06 09:17:59;;;;;;;11.27;7.80;;;;;;;21.42;57.53;102391.94;5052638;28;20024;-67
2021/09/06 09:20:45;;;;;;;12.23;7.97;;;;;;;21.40;57.37;102383.25;5052726;28;20025;-65
2021/09/06 09:23:13;;;;;;;10.80;6.95;;;;;;;21.44;57.33;102392.66;5051940;28;20040;-67
2021/09/06 09:25:38;;;;;;;10.65;7.85;;;;;;;21.44;57.54;102382.88;5052672;28;20036;-66
2021/09/06 09:28:04;;;;;;;11.03;7.37;;;;;;;21.45;57.26;102395.22;5052001;28;20028;-65
2021/09/06 09:30:32;;;;;;;10.60;7.80;;;;;;;21.45;57.51;102389.91;5051673;28;20267;-65
2021/09/06 09:33:12;;;;;;;10.32;7.55;;;;;;;21.47;57.43;102397.75;5052172;28;20495;-63
2021/09/06 09:35:41;;;;;;;12.93;8.18;;;;;;;21.47;57.23;102392.44;5052742;28;20099;-64
2021/09/06 09:38:11;;;;;;;10.55;7.43;;;;;;;21.47;57.42;102395.94;5051439;28;20094;-65
2021/09/06 09:40:39;;;;;;;10.65;7.72;;;;;;;21.44;57.63;102384.72;5052507;28;20103;-65
2021/09/06 09:43:06;;;;;;;10.57;7.82;;;;;;;21.50;57.42;102392.25;5051303;28;20118;-65
2021/09/06 09:45:35;;;;;;;11.82;7.13;;;;;;;21.47;57.88;102387.97;5052261;28;20025;-66
2021/09/06 09:48:02;;;;;;;10.25;7.68;;;;;;;21.50;57.84;102394.91;5052223;28;20033;-62
2021/09/06 09:50:34;;;;;;;11.50;7.88;;;;;;;21.52;57.57;102390.34;5051676;28;20021;-65
2021/09/06 09:53:00;;;;;;;12.23;7.88;;;;;;;21.52;57.51;102390.34;5052174;28;20029;-65
2021/09/06 09:55:31;;;;;;;10.65;8.10;;;;;;;21.52;57.60;102393.00;5052229;28;20021;-65
2021/09/06 09:57:56;;;;;;;11.85;7.88;;;;;;;21.51;57.44;102394.81;5051178;28;20468;-65
2021/09/06 10:00:22;;;;;;;10.93;7.88;;;;;;;21.50;57.56;102392.25;5052202;28;20032;-65
2021/09/06 10:02:53;;;;;;;12.80;9.13;;;;;;;21.49;57.82;102388.78;5052783;28;20380;-66
2021/09/06 10:05:28;;;;;;;13.30;9.80;;;;;;;21.49;57.62;102393.22;5055753;28;20021;-65
2021/09/06 10:07:57;;;;;;;14.73;8.68;;;;;;;21.50;57.69;102393.09;5056270;28;20028;-68
2021/09/06 10:10:24;;;;;;;13.60;9.27;;;;;;;21.50;57.66;102393.09;5056260;28;20025;-65
2021/09/06 10:13:11;;;;;;;20.00;9.40;;;;;;;21.50;57.63;102394.91;5055011;28;20025;-64
2021/09/06 10:15:39;;;;;;;12.68;8.40;;;;;;;21.51;57.44;102393.97;5056340;28;20018;-64
2021/09/06 10:18:15;;;;;;;11.65;8.23;;;;;;;21.53;57.28;102387.56;5055970;28;20021;-64
2021/09/06 10:20:40;;;;;;;10.43;7.88;;;;;;;21.53;57.38;102394.69;5055890;28;20480;-65
2021/09/06 10:23:11;;;;;;;10.25;7.90;;;;;;;21.56;57.37;102391.81;5055546;28;20099;-64
2021/09/06 10:25:39;;;;;;;11.90;8.30;;;;;;;21.56;57.62;102391.81;5055440;28;20133;-66
2021/09/06 10:28:12;;;;;;;11.75;7.50;;;;;;;21.59;57.21;102394.25;5055617;28;20021;-63
2021/09/06 10:30:50;;;;;;;11.57;7.95;;;;;;;21.61;57.14;102399.47;5055894;28;20398;-64
2021/09/06 10:33:37;;;;;;;10.05;7.35;;;;;;;21.59;57.17;102391.59;5055003;28;20021;-64
2021/09/06 10:36:22;;;;;;;11.10;7.03;;;;;;;21.59;57.04;102394.25;5055259;28;20025;-64
2021/09/06 10:39:00;;;;;;;10.55;7.50;;;;;;;21.60;57.35;102392.44;5055398;28;20033;-64
2021/09/06 10:41:26;;;;;;;11.52;8.07;;;;;;;21.60;57.21;102398.59;5054884;28;20071;-64
2021/09/06 10:43:53;;;;;;;10.00;7.22;;;;;;;21.60;57.48;102393.28;5055148;28;20017;-62
2021/09/06 10:46:24;;;;;;;10.50;7.28;;;;;;;21.60;57.32;102393.28;5055284;28;20048;-65
2021/09/06 10:48:50;;;;;;;10.32;7.10;;;;;;;21.60;57.27;102395.09;5055172;28;20044;-64
2021/09/06 10:51:30;;;;;;;9.45;7.03;;;;;;;21.62;57.10;102388.75;5055290;28;20025;-64
2021/09/06 10:53:57;;;;;;;12.00;7.97;;;;;;;21.63;56.99;102386.91;5054307;28;20384;-65
2021/09/06 10:56:28;;;;;;;12.85;8.10;;;;;;;21.61;57.05;102384.38;5055202;28;20021;-68
2021/09/06 10:58:57;;;;;;;12.15;8.48;;;;;;;21.62;56.78;102385.22;5054789;28;20545;-69
2021/09/06 11:01:23;;;;;;;12.95;8.13;;;;;;;21.55;56.41;102379.50;5054489;28;20115;-71
2021/09/06 11:03:50;;;;;;;12.82;8.32;;;;;;;21.60;56.26;102382.66;5054807;28;20049;-68
2021/09/06 11:06:16;;;;;;;12.63;8.25;;;;;;;21.60;56.60;102380.03;5055005;28;20021;-68
2021/09/06 11:08:43;;;;;;;11.60;7.78;;;;;;;21.62;56.39;102383.44;5054170;28;20028;-66
2021/09/06 11:11:10;;;;;;;12.18;7.97;;;;;;;21.64;56.13;102384.16;5054447;28;20036;-66
2021/09/06 11:13:36;;;;;;;10.80;7.50;;;;;;;21.65;56.41;102375.25;5055040;28;20017;-66
2021/09/06 11:16:05;;;;;;;10.63;7.30;;;;;;;21.66;56.28;102373.44;5053171;28;20027;-66
2021/09/06 11:18:37;;;;;;;11.98;7.78;;;;;;;21.65;56.17;102375.25;5054616;28;20570;-67
2021/09/06 11:21:06;;;;;;;11.50;7.45;;;;;;;21.67;56.06;102369.84;5054544;28;20412;-68